Latest Weather Observations for Moomba Airport

IDS60801

Issued at 5:31 pm CDT Thursday 23 February 2017 (issued every 30 minutes, with the page automatically refreshed every 10 minutes)

About weather observations | Map of weather stations | Latest weather observations for SA | Other Formats
Station Details ID: 017123 Name: MOOMBA AIRPORT Lat: -28.10 Lon: 140.20 Height: 37.8 m
Data from the previous 72 hours. | See also: Recent months at Moomba Airport
Date/Time
CDT
Temp
°C
App
Temp
°C
Dew
Point
°C
Rel
Hum
%
Delta-T
°C
Wind Press
QNH
hPa
Press
MSL
hPa
Rain since
9am
mm
Dir  Spd
km/h
Gust
km/h
Spd
kts
Gust
kts
23/05:00pm 39.3 34.2 0.6 9 19.8 SSW 17 26 9 14 1013.0 1012.7 0.0
23/04:30pm 39.3 35.1 -1.0 8 20.2 S 11 24 6 13 1013.2 1012.9 0.0
23/04:00pm 38.9 33.7 0.3 9 19.6 SSW 17 24 9 13 1013.4 1013.1 0.0
23/03:30pm 39.2 34.8 0.6 9 19.8 S 13 20 7 11 1013.5 1013.2 0.0
23/03:00pm 38.5 33.7 0.0 9 19.4 S 15 28 8 15 1013.9 1013.6 0.0
23/02:30pm 38.2 33.9 1.3 10 19.0 SSE 13 22 7 12 1014.2 1014.0 0.0
23/02:00pm 37.8 33.3 2.3 11 18.5 SSE 15 26 8 14 1014.5 1014.3 0.0
23/01:30pm 36.6 32.2 2.6 12 17.7 S 15 24 8 13 1014.7 1014.5 0.0
23/01:00pm 36.1 31.6 2.2 12 17.5 SSE 15 24 8 13 1014.9 1014.7 0.0
23/12:30pm 34.9 30.6 3.5 14 16.4 S 15 24 8 13 1015.3 1015.1 0.0
23/12:00pm 33.9 29.1 4.6 16 15.5 SSE 19 26 10 14 1015.6 1015.4 0.0
23/11:30am 32.0 27.0 4.7 18 14.3 SSE 20 30 11 16 1015.9 1015.7 0.0
23/11:00am 31.0 25.3 4.7 19 13.7 SSE 24 32 13 17 1016.0 1015.8 0.0
23/10:30am 29.7 24.8 5.1 21 12.8 SSE 20 30 11 16 1016.1 1015.9 0.0
23/10:00am 28.7 23.8 4.9 22 12.3 SSE 20 24 11 13 1016.0 1015.8 0.0
23/09:30am 27.8 22.2 5.4 24 11.6 SSE 24 32 13 17 1015.8 1015.6 0.0
23/09:00am 26.7 21.1 5.6 26 10.9 SSE 24 30 13 16 1015.5 1015.3 0.0
23/08:30am 25.7 20.2 5.8 28 10.2 SSE 24 33 13 18 1015.2 1015.0 0.0
23/08:00am 24.4 20.1 5.2 29 9.7 SSE 17 24 9 13 1014.9 1014.7 0.0
23/07:30am 23.4 18.9 4.4 29 9.4 SSE 17 24 9 13 1014.4 1014.2 0.0
23/07:00am 23.4 18.1 2.8 26 9.9 SSE 20 26 11 14 1013.7 1013.4 0.0
23/06:30am 23.4 17.4 -1.5 19 11.0 SSE 20 26 11 14 1013.3 1013.0 0.0
23/06:00am 23.2 18.2 -4.0 16 11.4 S 13 17 7 9 1012.7 1012.4 0.0
23/05:30am 21.7 16.3 -7.9 13 11.4 SW 13 15 7 8 1012.1 1011.8 0.0
23/05:00am 22.6 18.1 -7.2 13 11.7 SSW 9 9 5 5 1011.4 1011.1 0.0
23/04:30am 23.3 18.8 -6.6 13 12.0 SSW 9 13 5 7 1011.3 1011.0 0.0
23/04:00am 23.7 19.4 -5.3 14 12.0 S 9 11 5 6 1011.2 1010.9 0.0
23/03:30am 23.6 19.1 -6.4 13 12.1 S 9 11 5 6 1011.1 1010.8 0.0
23/03:00am 23.5 19.0 -6.5 13 12.1 SSW 9 11 5 6 1011.2 1010.9 0.0
23/02:30am 24.0 19.5 -7.1 12 12.4 SW 9 11 5 6 1011.4 1011.1 0.0
23/02:00am 25.8 20.2 -6.9 11 13.3 WSW 15 26 8 14 1011.6 1011.3 0.0
23/01:30am 26.5 22.2 -5.2 12 13.4 E 9 9 5 5 1011.6 1011.3 0.0
23/01:00am 25.3 21.4 -6.1 12 12.9 ESE 6 6 3 3 1011.8 1011.5 0.0
23/12:30am 26.1 21.7 -5.5 12 13.3 ENE 9 9 5 5 1012.0 1011.7 0.0
23/12:00am 25.7 21.0 -4.7 13 12.9 ENE 11 13 6 7 1012.0 1011.7 0.0
 
Date/Time
CDT
Temp
°C
App
Temp
°C
Dew
Point
°C
Rel
Hum
%
Delta-T
°C
Wind Press
QNH
hPa
Press
MSL
hPa
Rain since
9am
mm
Dir  Spd
km/h
Gust
km/h
Spd
kts
Gust
kts
22/11:30pm 27.2 22.8 -5.8 11 13.9 E 9 11 5 6 1012.1 1011.8 0.0
22/11:00pm 28.8 24.8 -5.8 10 14.8 E 7 9 4 5 1012.0 1011.7 0.0
22/10:30pm 29.7 25.8 -5.1 10 15.2 NE 7 9 4 5 1011.9 1011.6 0.0
22/10:00pm 28.7 24.3 -5.9 10 14.8 E 9 11 5 6 1011.7 1011.4 0.0
22/09:30pm 30.0 26.1 -6.3 9 15.6 E 6 7 3 4 1011.4 1011.1 0.0
22/09:00pm 32.1 28.4 -4.7 9 16.5 S 6 6 3 3 1011.0 1010.7 0.0
22/08:30pm 33.8 30.1 -5.0 8 17.5 SSW 6 9 3 5 1010.7 1010.4 0.0
22/08:00pm 35.8 31.8 -5.3 7 18.8 SW 7 9 4 5 1010.2 1009.9 0.0
22/07:30pm 37.4 33.2 -4.2 7 19.6 SW 9 13 5 7 1009.8 1009.5 0.0
22/07:00pm 38.2 34.4 -5.6 6 20.2 S 6 9 3 5 1009.6 1009.3 0.0
22/06:30pm 39.1 34.8 -5.0 6 20.7 SW 9 13 5 7 1009.5 1009.2 0.0
22/06:00pm 39.1 33.6 -5.0 6 20.7 SW 15 24 8 13 1009.4 1009.1 0.0
22/05:30pm 39.2 34.9 -4.9 6 20.8 NW 9 15 5 8 1009.4 1009.1 0.0
22/05:00pm 39.1 34.6 -2.9 7 20.4 WNW 11 20 6 11 1009.4 1009.1 0.0
22/04:30pm 39.6 35.9 -2.6 7 20.7 NW 7 19 4 10 1009.5 1009.2 0.0
22/04:00pm 39.1 34.6 -2.9 7 20.4 SSW 11 20 6 11 1009.7 1009.4 0.0
22/03:30pm 38.9 33.3 -3.1 7 20.3 NW 17 26 9 14 1010.0 1009.7 0.0
22/03:00pm 38.7 33.4 -3.2 7 20.2 NNW 15 22 8 12 1010.4 1010.1 0.0
22/02:30pm 38.6 34.9 -3.3 7 20.2 WSW 7 20 4 11 1010.6 1010.3 0.0
22/02:00pm 38.4 34.1 -1.6 8 19.7 NW 11 24 6 13 1010.9 1010.6 0.0
22/01:30pm 37.7 33.7 -2.2 8 19.4 W 9 22 5 12 1011.2 1010.9 0.0
22/01:00pm 37.3 32.1 -2.4 8 19.2 WNW 15 26 8 14 1011.6 1011.3 0.0
22/12:30pm 37.2 32.6 -0.9 9 18.8 NNW 13 32 7 17 1011.9 1011.6 0.0
22/12:00pm 36.6 32.0 -1.4 9 18.6 N 13 24 7 13 1012.3 1012.0 0.0
22/11:30am 36.9 30.8 -2.7 8 19.0 NNE 20 28 11 15 1012.5 1012.2 0.0
22/11:00am 35.7 29.8 -2.0 9 18.1 NNE 19 28 10 15 1012.8 1012.5 0.0
22/10:30am 34.2 28.4 -1.7 10 17.2 NNE 19 26 10 14 1013.0 1012.7 0.0
22/10:00am 32.4 26.5 -0.6 12 15.9 NNE 20 26 11 14 1013.1 1012.8 0.0
22/09:30am 30.9 26.0 -0.7 13 15.0 NE 15 22 8 12 1013.2 1012.9 0.0
22/09:00am 27.9 23.5 0.6 17 13.0 ENE 13 15 7 8 1013.1 1012.8 0.0
22/08:30am 25.9 21.6 1.2 20 11.7 NE 13 17 7 9 1012.9 1012.6 0.0
22/08:00am 23.1 19.2 0.9 23 10.2 NE 11 13 6 7 1012.7 1012.4 0.0
22/07:30am 20.2 15.8 0.1 26 8.9 ENE 13 13 7 7 1012.4 1012.1 0.0
22/07:00am 17.9 13.8 -0.4 29 7.9 ENE 11 11 6 6 1012.4 1012.1 0.0
22/06:30am 18.2 14.4 -0.6 28 8.1 E 9 11 5 6 1012.1 1011.8 0.0
22/06:00am 18.6 14.7 -1.3 26 8.5 E 9 11 5 6 1011.8 1011.5 0.0
22/05:30am 19.1 15.3 -0.8 26 8.6 E 9 11 5 6 1011.6 1011.3 0.0
22/05:00am 19.7 15.5 -0.9 25 8.9 E 11 11 6 6 1011.4 1011.1 0.0
22/04:30am 19.7 15.9 -0.9 25 8.9 ENE 9 11 5 6 1011.3 1011.0 0.0
22/04:00am 20.0 16.1 -1.2 24 9.2 E 9 9 5 5 1011.3 1011.0 0.0
22/03:30am 20.7 16.9 -1.1 23 9.5 E 9 9 5 5 1011.2 1010.9 0.0
22/03:00am 21.1 16.8 -1.4 22 9.8 E 11 11 6 6 1011.4 1011.1 0.0
22/02:30am 22.5 17.9 -0.9 21 10.4 ESE 13 13 7 7 1011.7 1011.4 0.0
22/02:00am 23.5 18.9 -0.7 20 10.9 ESE 13 15 7 8 1011.9 1011.6 0.0
22/01:30am 23.0 19.2 -1.1 20 10.7 SE 9 11 5 6 1012.2 1011.9 0.0
22/01:00am 24.3 20.4 -1.5 18 11.5 SE 9 11 5 6 1012.5 1012.2 0.0
22/12:30am 23.8 21.3 -1.2 19 11.2 SSE 2 6 1 3 1012.5 1012.2 0.0
22/12:00am 24.3 21.1 -0.8 19 11.3 S 6 7 3 4 1012.7 1012.4 0.0
 
Date/Time
CDT
Temp
°C
App
Temp
°C
Dew
Point
°C
Rel
Hum
%
Delta-T
°C
Wind Press
QNH
hPa
Press
MSL
hPa
Rain since
9am
mm
Dir  Spd
km/h
Gust
km/h
Spd
kts
Gust
kts
21/11:30pm 25.5 22.0 -1.3 17 12.1 SSE 7 9 4 5 1013.0 1012.7 0.0
21/11:00pm 27.6 23.7 -1.3 15 13.3 S 9 11 5 6 1013.2 1012.9 0.0
21/10:30pm 27.9 24.1 -1.1 15 13.4 S 9 11 5 6 1013.2 1012.9 0.0
21/10:00pm 29.1 25.3 -1.1 14 14.1 S 9 13 5 7 1013.1 1012.8 0.0
21/09:30pm 29.6 25.7 -1.7 13 14.5 SSE 9 11 5 6 1012.9 1012.6 0.0
21/09:00pm 30.2 26.0 -1.2 13 14.7 SE 11 13 6 7 1012.6 1012.3 0.0
21/08:30pm 30.6 26.3 -2.0 12 15.1 SE 11 11 6 6 1012.4 1012.1 0.0
21/08:00pm 30.8 26.8 -1.9 12 15.2 ESE 9 11 5 6 1012.2 1011.9 0.0
21/07:30pm 32.5 28.6 -1.7 11 16.2 E 9 13 5 7 1012.2 1011.9 0.0
21/07:00pm 33.4 28.6 -2.3 10 16.8 ESE 13 20 7 11 1012.1 1011.8 0.0
21/06:30pm 33.8 29.1 -2.0 10 17.0 ENE 13 20 7 11 1011.9 1011.6 0.0
21/06:00pm 34.2 31.2 -1.7 10 17.2 SSW 4 11 2 6 1011.9 1011.6 0.0
21/05:30pm 33.8 29.1 -2.0 10 17.0 SSE 13 19 7 10 1012.1 1011.8 0.0
21/05:00pm 33.8 29.1 -2.0 10 17.0 ENE 13 19 7 10 1012.0 1011.7 0.0
21/04:30pm 33.7 30.3 -0.8 11 16.7 NNE 7 20 4 11 1012.3 1012.0 0.0
21/04:00pm 33.8 30.2 -2.0 10 17.0 ESE 7 17 4 9 1012.5 1012.2 0.0
21/03:30pm 33.9 30.7 -0.7 11 16.8 SE 6 15 3 8 1013.0 1012.7 0.0
21/03:00pm 32.4 28.2 -0.6 12 15.9 E 11 22 6 12 1013.5 1013.2 0.0
21/02:30pm 33.3 29.6 0.1 12 16.3 ESE 9 17 5 9 1013.9 1013.6 0.0
21/02:00pm 32.6 29.2 1.7 14 15.5 E 9 19 5 10 1014.4 1014.2 0.0
21/01:30pm 32.1 28.2 1.3 14 15.3 ENE 11 19 6 10 1014.9 1014.7 0.0
21/01:00pm 31.7 27.5 1.9 15 14.9 SE 13 26 7 14 1015.4 1015.2 0.0
21/12:30pm 31.5 27.1 2.7 16 14.5 ESE 15 22 8 12 1015.8 1015.6 0.0
21/12:00pm 30.5 26.5 2.7 17 14.0 ESE 13 22 7 12 1016.3 1016.1 0.0
21/11:30am 30.4 26.0 2.6 17 13.9 E 15 22 8 12 1016.7 1016.5 0.0
21/11:00am 29.1 23.8 3.1 19 13.0 E 20 26 11 14 1016.9 1016.7 0.0
21/10:30am 28.0 22.7 3.0 20 12.4 E 20 30 11 16 1017.2 1017.0 0.0
21/10:00am 26.8 21.1 2.7 21 11.8 E 22 30 12 16 1017.3 1017.1 0.0
21/09:30am 25.4 19.2 2.2 22 11.1 E 24 30 13 16 1017.2 1017.0 0.0
21/09:00am 23.7 17.6 2.5 25 10.1 E 24 30 13 16 1017.3 1017.1 0.0
21/08:30am 21.6 16.3 2.8 29 8.9 ESE 20 26 11 14 1017.0 1016.8 0.0
21/08:00am 19.7 15.0 3.0 33 7.8 ESE 17 20 9 11 1016.7 1016.5 0.0
21/07:30am 18.5 14.1 2.8 35 7.2 SE 15 20 8 11 1016.4 1016.2 0.0
21/07:00am 18.5 13.7 2.8 35 7.3 SE 17 20 9 11 1016.0 1015.8 0.0
21/06:30am 18.2 14.6 2.9 36 7.1 SE 11 13 6 7 1015.6 1015.4 0.0
21/06:00am 18.6 14.6 2.9 35 7.3 SE 13 15 7 8 1015.2 1015.0 0.0
21/05:30am 19.3 15.3 3.1 34 7.6 SE 13 17 7 9 1014.8 1014.6 0.0
21/05:00am 19.6 15.7 3.3 34 7.7 SE 13 19 7 10 1014.7 1014.5 0.0
21/04:30am 19.5 15.9 2.8 33 7.8 SE 11 15 6 8 1014.5 1014.3 0.0
21/04:00am 20.8 16.5 3.5 32 8.3 SE 15 20 8 11 1014.5 1014.3 0.0
21/03:30am 20.3 16.3 3.1 32 8.1 SE 13 19 7 10 1014.4 1014.2 0.0
21/03:00am 20.4 16.8 3.2 32 8.1 SE 11 15 6 8 1014.5 1014.3 0.0
21/02:30am 20.9 17.0 3.2 31 8.4 SE 13 15 7 8 1014.6 1014.4 0.0
21/02:00am 21.7 17.4 3.4 30 8.8 SE 15 19 8 10 1014.6 1014.4 0.0
21/01:30am 22.2 17.5 3.3 29 9.1 SE 17 20 9 11 1014.8 1014.6 0.0
21/01:00am 23.8 19.3 4.2 28 9.7 SE 17 24 9 13 1015.0 1014.8 0.0
21/12:30am 23.6 18.4 3.5 27 9.8 SSE 20 26 11 14 1015.1 1014.9 0.0
21/12:00am 23.9 18.4 3.8 27 9.9 SSE 22 28 12 15 1015.2 1015.0 0.0
 
Date/Time
CDT
Temp
°C
App
Temp
°C
Dew
Point
°C
Rel
Hum
%
Delta-T
°C
Wind Press
QNH
hPa
Press
MSL
hPa
Rain since
9am
mm
Dir  Spd
km/h
Gust
km/h
Spd
kts
Gust
kts
20/11:30pm 24.2 19.2 3.5 26 10.1 SSE 19 26 10 14 1015.3 1015.1 0.0
20/11:00pm 24.4 19.8 3.7 26 10.2 S 17 26 9 14 1015.5 1015.3 0.0
20/10:30pm 24.3 20.0 3.0 25 10.3 S 15 20 8 11 1015.5 1015.3 0.0
20/10:00pm 25.4 20.6 2.8 23 11.0 S 17 20 9 11 1015.2 1015.0 0.0
20/09:30pm 26.2 21.8 2.8 22 11.4 S 15 24 8 13 1014.8 1014.6 0.0
20/09:00pm 26.8 22.4 2.7 21 11.8 S 15 19 8 10 1014.6 1014.4 0.0
20/08:30pm 27.2 23.1 2.3 20 12.2 S 13 19 7 10 1014.1 1013.8 0.0
20/08:00pm 28.0 23.3 3.0 20 12.4 SSE 17 22 9 12 1013.7 1013.4 0.0
20/07:30pm 28.9 24.4 2.2 18 13.2 SSE 15 22 8 12 1013.2 1012.9 0.0
20/07:00pm 29.2 25.0 1.7 17 13.5 SE 13 22 7 12 1012.9 1012.6 0.0
20/06:30pm 29.6 25.1 2.0 17 13.6 SSE 15 24 8 13 1012.7 1012.4 0.0
20/06:00pm 29.9 25.8 2.2 17 13.8 SSE 13 20 7 11 1012.5 1012.2 0.0

Other Formats:

Comma delimited format used in spreadsheet applications
http://www.bom.gov.au/fwo/IDS60801/IDS60801.95481.axf

JavaScript Object Notation format (JSON) in row-major order
http://www.bom.gov.au/fwo/IDS60801/IDS60801.95481.json